createdAt,value
2019-05-21T00:00:05.789Z,87.80
2019-05-21T00:01:08.502Z,87.80
2019-05-21T00:02:05.448Z,87.80
2019-05-21T00:03:05.501Z,87.80
2019-05-21T00:04:05.549Z,87.80
2019-05-21T00:05:05.189Z,87.80
2019-05-21T00:06:07.939Z,87.80
2019-05-21T00:07:08.592Z,87.80
2019-05-21T00:08:05.546Z,87.80
2019-05-21T00:09:05.592Z,87.80
2019-05-21T00:10:05.660Z,87.80
2019-05-21T00:11:05.867Z,87.70
2019-05-21T00:12:05.091Z,87.70
2019-05-21T00:13:07.803Z,87.70
2019-05-21T00:14:05.729Z,87.70
2019-05-21T00:15:05.770Z,87.60
2019-05-21T00:16:05.856Z,87.60
2019-05-21T00:17:08.401Z,87.50
2019-05-21T00:18:07.977Z,87.50
2019-05-21T00:19:11.018Z,87.50
2019-05-21T00:20:05.114Z,87.50
2019-05-21T00:21:10.230Z,87.50
2019-05-21T00:22:07.647Z,87.50
2019-05-21T00:23:08.173Z,87.50
2019-05-21T00:24:05.073Z,87.50
2019-05-21T00:25:05.186Z,87.50
2019-05-21T00:26:05.489Z,87.60
2019-05-21T00:27:08.065Z,87.70
2019-05-21T00:28:04.964Z,87.60
2019-05-21T00:29:05.199Z,87.60
2019-05-21T00:30:05.608Z,87.60
2019-05-21T00:31:05.812Z,87.60
2019-05-21T00:32:05.969Z,87.60
2019-05-21T00:33:05.125Z,87.60
2019-05-21T00:34:07.718Z,87.60
2019-05-21T00:35:05.711Z,87.60
2019-05-21T00:36:05.710Z,87.60
2019-05-21T00:37:08.298Z,87.70
2019-05-21T00:38:05.234Z,87.70
2019-05-21T00:39:05.316Z,87.60
2019-05-21T00:40:05.432Z,87.70
2019-05-21T00:41:05.541Z,87.70
2019-05-21T00:42:05.671Z,87.60
2019-05-21T00:43:05.710Z,87.70
2019-05-21T00:44:05.234Z,87.70
2019-05-21T00:45:08.295Z,87.60
2019-05-21T00:46:07.902Z,87.70
2019-05-21T00:47:05.857Z,87.70
2019-05-21T00:48:06.320Z,87.70
2019-05-21T00:49:05.412Z,87.70
2019-05-21T00:50:05.440Z,87.70
2019-05-21T00:51:05.487Z,87.70
2019-05-21T00:52:09.243Z,87.70
2019-05-21T00:53:05.556Z,87.70
2019-05-21T00:54:08.159Z,87.70
2019-05-21T00:55:07.693Z,87.70
2019-05-21T00:56:05.593Z,87.70
2019-05-21T00:57:11.069Z,87.70
2019-05-21T00:58:05.503Z,87.70
2019-05-21T00:59:05.565Z,87.70
2019-05-21T01:00:06.127Z,87.90
2019-05-21T01:01:07.883Z,87.80
2019-05-21T01:02:08.487Z,87.90
2019-05-21T01:03:07.947Z,87.90
2019-05-21T01:04:05.869Z,88.00
2019-05-21T01:05:07.857Z,88.10
2019-05-21T01:06:05.812Z,87.90
2019-05-21T01:07:07.630Z,88.10
2019-05-21T01:08:05.701Z,88.10
2019-05-21T01:09:05.758Z,88.10
2019-05-21T01:10:08.451Z,88.00
2019-05-21T01:11:05.398Z,87.90
2019-05-21T01:12:05.417Z,87.90
2019-05-21T01:13:08.048Z,87.90
2019-05-21T01:14:07.541Z,87.90
2019-05-21T01:15:05.502Z,87.90
2019-05-21T01:16:05.610Z,87.90
2019-05-21T01:17:08.210Z,87.90
2019-05-21T01:18:10.328Z,87.80
2019-05-21T01:19:05.276Z,87.80
2019-05-21T01:20:05.319Z,87.80
2019-05-21T01:21:05.361Z,88.00
2019-05-21T01:22:05.585Z,87.90
2019-05-21T01:23:05.620Z,87.90
2019-05-21T01:24:08.231Z,87.90
2019-05-21T01:25:05.128Z,87.90
2019-05-21T01:26:07.848Z,88.10
2019-05-21T01:27:05.801Z,88.10
2019-05-21T01:28:08.370Z,88.10
2019-05-21T01:29:05.329Z,88.10
2019-05-21T01:30:05.371Z,88.00
2019-05-21T01:31:08.003Z,88.10
2019-05-21T01:32:08.567Z,88.10
2019-05-21T01:33:05.680Z,88.00
2019-05-21T01:34:11.816Z,88.00
2019-05-21T01:35:17.614Z,88.00
2019-05-21T01:36:10.811Z,88.10
2019-05-21T01:37:07.735Z,88.10
2019-05-21T01:38:05.690Z,88.10
2019-05-21T01:39:04.956Z,88.10
2019-05-21T01:40:05.731Z,88.10
2019-05-21T01:41:05.903Z,88.10
2019-05-21T01:42:07.710Z,88.10
2019-05-21T01:43:08.129Z,88.10
2019-05-21T01:44:10.155Z,88.10
2019-05-21T01:45:05.137Z,88.10
2019-05-21T01:46:05.255Z,88.10
2019-05-21T01:47:10.575Z,88.10
2019-05-21T01:48:05.544Z,88.10
2019-05-21T01:49:05.639Z,88.10
2019-05-21T01:50:05.736Z,88.10
2019-05-21T01:51:08.484Z,88.10
2019-05-21T01:52:05.379Z,88.10
2019-05-21T01:53:10.947Z,88.10
2019-05-21T01:54:05.962Z,88.10
2019-05-21T01:55:05.015Z,88.10
2019-05-21T01:56:05.130Z,88.10
2019-05-21T01:57:05.189Z,88.10
2019-05-21T01:58:05.236Z,88.10
2019-05-21T01:59:07.830Z,88.10
2019-05-21T02:00:05.735Z,88.10
2019-05-21T02:01:05.854Z,88.10
2019-05-21T02:02:08.513Z,88.00
2019-05-21T02:03:08.047Z,87.90
2019-05-21T02:04:04.959Z,88.00
2019-05-21T02:05:05.008Z,87.90
2019-05-21T02:06:07.728Z,88.00
2019-05-21T02:07:10.797Z,87.90
2019-05-21T02:08:05.721Z,87.90
2019-05-21T02:09:05.792Z,87.90
2019-05-21T02:10:08.374Z,87.90
2019-05-21T02:11:05.418Z,87.90
2019-05-21T02:12:05.535Z,87.80
2019-05-21T02:13:08.133Z,87.80
2019-05-21T02:14:07.600Z,87.80
2019-05-21T02:15:05.615Z,87.80
2019-05-21T02:16:05.677Z,87.80
2019-05-21T02:17:05.890Z,87.80
2019-05-21T02:18:04.945Z,87.70
2019-05-21T02:19:05.000Z,87.70
2019-05-21T02:20:05.121Z,87.70
2019-05-21T02:21:07.751Z,87.70
2019-05-21T02:22:08.124Z,87.70
2019-05-21T02:23:05.214Z,87.80
2019-05-21T02:24:05.442Z,87.80
2019-05-21T02:25:08.344Z,87.70
2019-05-21T02:26:10.342Z,87.70
2019-05-21T02:27:05.290Z,87.60
2019-05-21T02:28:05.179Z,87.70
2019-05-21T02:29:05.312Z,87.70
2019-05-21T02:30:08.396Z,87.60
2019-05-21T02:31:05.103Z,87.70
2019-05-21T02:32:05.204Z,87.60
2019-05-21T02:33:08.440Z,87.60
2019-05-21T02:34:05.540Z,87.50
2019-05-21T02:35:05.774Z,87.60
2019-05-21T02:36:05.881Z,87.60
2019-05-21T02:37:06.888Z,87.50
2019-05-21T02:38:07.521Z,87.60
2019-05-21T02:39:05.583Z,87.60
2019-05-21T02:40:08.229Z,87.50
2019-05-21T02:41:07.915Z,87.40
2019-05-21T02:42:05.894Z,87.40
2019-05-21T02:43:05.153Z,87.40
2019-05-21T02:44:05.230Z,87.40
2019-05-21T02:45:05.676Z,87.30
2019-05-21T02:46:05.686Z,87.30
2019-05-21T02:47:05.611Z,87.20
2019-05-21T02:48:10.792Z,87.20
2019-05-21T02:49:05.765Z,87.20
2019-05-21T02:50:05.844Z,87.10
2019-05-21T02:51:05.917Z,87.10
2019-05-21T02:52:07.488Z,87.00
2019-05-21T02:53:07.869Z,87.00
2019-05-21T02:54:08.311Z,86.90
2019-05-21T02:55:05.208Z,86.90
2019-05-21T02:56:07.803Z,86.90
2019-05-21T02:57:08.268Z,86.90
2019-05-21T02:58:07.666Z,86.90
2019-05-21T02:59:10.591Z,86.90
2019-05-21T03:00:05.648Z,86.90
2019-05-21T03:01:08.265Z,86.80
2019-05-21T03:02:05.174Z,86.80
2019-05-21T03:03:10.292Z,86.90
2019-05-21T03:04:07.759Z,86.80
2019-05-21T03:05:08.348Z,86.80
2019-05-21T03:06:14.991Z,86.80
2019-05-21T03:07:05.202Z,86.70
2019-05-21T03:08:05.249Z,86.80
2019-05-21T03:09:07.932Z,86.70
2019-05-21T03:10:08.564Z,86.70
2019-05-21T03:11:08.028Z,86.70
2019-05-21T03:12:07.434Z,86.70
2019-05-21T03:13:08.013Z,86.70
2019-05-21T03:14:07.594Z,86.70
2019-05-21T03:15:08.249Z,86.70
2019-05-21T03:16:10.361Z,86.70
2019-05-21T03:17:07.910Z,86.70
2019-05-21T03:18:08.392Z,86.70
2019-05-21T03:19:08.051Z,86.70
2019-05-21T03:20:05.020Z,86.70
2019-05-21T03:21:07.778Z,86.60
2019-05-21T03:22:05.811Z,86.60
2019-05-21T03:23:05.960Z,86.60
2019-05-21T03:24:05.239Z,86.60
2019-05-21T03:25:05.305Z,86.60
2019-05-21T03:26:05.379Z,86.60
2019-05-21T03:27:05.514Z,86.60
2019-05-21T03:28:05.867Z,86.60
2019-05-21T03:29:07.484Z,86.60
2019-05-21T03:30:05.501Z,86.60
2019-05-21T03:31:05.617Z,86.60
2019-05-21T03:32:08.366Z,86.70
2019-05-21T03:33:07.821Z,86.70
2019-05-21T03:34:05.913Z,86.60
2019-05-21T03:35:07.565Z,86.80
2019-05-21T03:36:05.530Z,86.60
2019-05-21T03:37:13.439Z,86.60
2019-05-21T03:38:10.529Z,86.60
2019-05-21T03:39:10.628Z,86.70
2019-05-21T03:40:08.099Z,86.70
2019-05-21T03:41:05.126Z,86.60
2019-05-21T03:42:07.860Z,86.60
2019-05-21T03:43:05.958Z,86.60
2019-05-21T03:44:10.163Z,86.60
2019-05-21T03:45:08.525Z,86.50
2019-05-21T03:46:05.679Z,86.60
2019-05-21T03:47:05.930Z,86.40
2019-05-21T03:48:05.273Z,86.30
2019-05-21T03:49:05.434Z,86.40
2019-05-21T03:50:05.623Z,86.40
2019-05-21T03:51:05.820Z,86.40
2019-05-21T03:52:04.985Z,86.50
2019-05-21T03:53:07.713Z,86.50
2019-05-21T03:54:08.210Z,86.50
2019-05-21T03:55:05.141Z,86.50
2019-05-21T03:56:05.439Z,86.40
2019-05-21T03:57:05.706Z,86.40
2019-05-21T03:58:08.553Z,86.40
2019-05-21T03:59:05.623Z,86.40
2019-05-21T04:00:05.880Z,86.50
2019-05-21T04:01:05.098Z,86.40
2019-05-21T04:02:05.260Z,86.50
2019-05-21T04:03:07.909Z,86.50
2019-05-21T04:04:10.999Z,86.50
2019-05-21T04:05:05.113Z,86.50
2019-05-21T04:06:05.987Z,86.50
2019-05-21T04:07:05.498Z,86.50
2019-05-21T04:08:10.767Z,86.50
2019-05-21T04:09:05.846Z,86.50
2019-05-21T04:10:06.131Z,86.50
2019-05-21T04:11:05.244Z,86.50
2019-05-21T04:12:10.424Z,86.50
2019-05-21T04:13:10.604Z,86.50
2019-05-21T04:14:05.553Z,86.50
2019-05-21T04:15:13.452Z,86.60
2019-05-21T04:16:08.049Z,86.50
2019-05-21T04:17:05.210Z,86.50
2019-05-21T04:18:05.411Z,86.50
2019-05-21T04:19:05.567Z,86.50
2019-05-21T04:20:10.902Z,86.50
2019-05-21T04:21:05.908Z,86.50
2019-05-21T04:22:07.496Z,86.50
2019-05-21T04:23:07.918Z,86.50
2019-05-21T04:24:09.658Z,86.50
2019-05-21T04:25:08.901Z,86.50
2019-05-21T04:26:08.562Z,86.40
2019-05-21T04:27:07.986Z,86.40
2019-05-21T04:28:05.901Z,86.40
2019-05-21T04:29:05.049Z,86.40
2019-05-21T04:30:05.120Z,86.40
2019-05-21T04:31:08.163Z,86.50
2019-05-21T04:32:10.222Z,86.40
2019-05-21T04:33:07.756Z,86.40
2019-05-21T04:34:05.724Z,86.40
2019-05-21T04:35:05.839Z,86.40
2019-05-21T04:36:05.996Z,86.40
2019-05-21T04:37:12.092Z,86.40
2019-05-21T04:38:05.581Z,86.40
2019-05-21T04:39:05.783Z,86.50
2019-05-21T04:40:05.899Z,86.40
2019-05-21T04:41:07.589Z,86.40
2019-05-21T04:42:05.617Z,86.40
2019-05-21T04:43:05.759Z,86.40
2019-05-21T04:44:13.548Z,86.40
2019-05-21T04:45:09.178Z,86.40
2019-05-21T04:46:07.755Z,86.40
2019-05-21T04:47:08.272Z,86.50
2019-05-21T04:48:05.265Z,86.40
2019-05-21T04:49:10.377Z,86.60
2019-05-21T04:50:10.431Z,86.60
2019-05-21T04:51:14.313Z,86.70
2019-05-21T04:52:07.834Z,86.70
2019-05-21T04:53:08.410Z,86.70
2019-05-21T04:54:13.083Z,86.70
2019-05-21T04:55:05.015Z,86.70
2019-05-21T04:56:07.797Z,86.80
2019-05-21T04:57:10.759Z,86.90
2019-05-21T04:58:05.164Z,86.90
2019-05-21T04:59:05.368Z,86.90
2019-05-21T05:00:05.114Z,87.10
2019-05-21T05:01:05.421Z,87.00
2019-05-21T05:02:07.966Z,87.00
2019-05-21T05:03:05.922Z,87.00
2019-05-21T05:04:05.578Z,87.20
2019-05-21T05:05:08.009Z,87.10
2019-05-21T05:06:11.005Z,87.10
2019-05-21T05:07:06.058Z,87.10
2019-05-21T05:08:05.859Z,87.10
2019-05-21T05:09:10.237Z,87.10
2019-05-21T05:10:07.821Z,87.00
2019-05-21T05:11:08.430Z,87.00
2019-05-21T05:12:05.378Z,87.00
2019-05-21T05:13:05.706Z,87.00
2019-05-21T05:14:08.430Z,87.10
2019-05-21T05:15:07.885Z,87.00
2019-05-21T05:16:10.785Z,87.00
2019-05-21T05:17:05.795Z,87.00
2019-05-21T05:18:05.862Z,87.00
2019-05-21T05:19:08.592Z,87.00
2019-05-21T05:20:05.738Z,87.00
2019-05-21T05:21:05.956Z,87.00
2019-05-21T05:22:05.654Z,87.00
2019-05-21T05:23:08.343Z,86.90
2019-05-21T05:24:05.307Z,86.90
2019-05-21T05:25:05.430Z,86.80
2019-05-21T05:26:05.548Z,87.00
2019-05-21T05:27:05.753Z,87.00
2019-05-21T05:28:08.274Z,87.00
2019-05-21T05:29:05.171Z,87.00
2019-05-21T05:30:05.385Z,87.20
2019-05-21T05:31:08.106Z,86.80
2019-05-21T05:32:05.076Z,86.80
2019-05-21T05:33:07.782Z,86.60
2019-05-21T05:34:05.737Z,86.60
2019-05-21T05:35:05.850Z,86.50
2019-05-21T05:36:08.546Z,86.20
2019-05-21T05:37:05.614Z,86.20
2019-05-21T05:38:05.680Z,86.00
2019-05-21T05:39:05.874Z,85.90
2019-05-21T05:40:07.640Z,86.00
2019-05-21T05:41:05.854Z,86.00
2019-05-21T05:42:04.960Z,86.00
2019-05-21T05:43:08.069Z,86.70
2019-05-21T05:44:05.144Z,86.70
2019-05-21T05:45:05.629Z,86.80
2019-05-21T05:46:05.457Z,86.40
2019-05-21T05:47:05.690Z,86.20
2019-05-21T05:48:05.857Z,85.60
2019-05-21T05:49:10.170Z,85.10
2019-05-21T05:50:05.741Z,85.20
2019-05-21T05:51:06.057Z,84.90
2019-05-21T05:52:07.730Z,84.70
2019-05-21T05:53:08.148Z,84.80
2019-05-21T05:54:08.201Z,84.80
2019-05-21T05:55:07.928Z,84.60
2019-05-21T05:56:08.522Z,84.60
2019-05-21T05:57:05.750Z,84.60
2019-05-21T05:58:05.869Z,84.40
2019-05-21T05:59:13.417Z,84.30
2019-05-21T06:00:05.365Z,84.40
2019-05-21T06:01:05.537Z,84.30
2019-05-21T06:02:05.797Z,84.20
2019-05-21T06:03:06.006Z,84.10
2019-05-21T06:04:05.098Z,84.10
2019-05-21T06:05:05.241Z,83.90
2019-05-21T06:06:05.561Z,84.00
2019-05-21T06:07:05.741Z,84.00
2019-05-21T06:08:05.817Z,84.10
2019-05-21T06:09:07.993Z,84.10
2019-05-21T06:10:08.531Z,84.00
2019-05-21T06:11:05.575Z,84.00
2019-05-21T06:12:05.880Z,83.90
2019-05-21T06:13:07.740Z,84.00
2019-05-21T06:14:05.827Z,83.90
2019-05-21T06:15:05.350Z,84.00
2019-05-21T06:16:05.700Z,83.90
2019-05-21T06:17:08.455Z,83.80
2019-05-21T06:18:08.025Z,83.80
2019-05-21T06:19:05.211Z,83.80
2019-05-21T06:20:07.927Z,84.00
2019-05-21T06:21:08.503Z,83.90
2019-05-21T06:22:08.170Z,83.70
2019-05-21T06:23:05.318Z,83.70
2019-05-21T06:24:07.942Z,83.80
2019-05-21T06:25:06.892Z,83.80
2019-05-21T06:26:07.762Z,84.00
2019-05-21T06:27:08.512Z,84.10
2019-05-21T06:28:08.132Z,84.10
2019-05-21T06:29:05.342Z,84.10
2019-05-21T06:30:08.044Z,84.20
2019-05-21T06:31:07.650Z,83.80
2019-05-21T06:32:05.587Z,83.90
2019-05-21T06:33:05.724Z,83.80
2019-05-21T06:34:08.503Z,83.80
2019-05-21T06:35:05.444Z,83.70
2019-05-21T06:36:05.692Z,83.80
2019-05-21T06:37:08.452Z,83.50
2019-05-21T06:38:18.397Z,83.50
2019-05-21T06:39:10.639Z,83.20
2019-05-21T06:40:08.295Z,83.30
2019-05-21T06:41:12.930Z,83.10
2019-05-21T06:42:05.965Z,83.10
2019-05-21T06:43:07.604Z,82.80
2019-05-21T06:44:08.162Z,82.70
2019-05-21T06:45:10.243Z,82.50
2019-05-21T06:46:05.220Z,82.60
2019-05-21T06:47:05.388Z,82.30
2019-05-21T06:48:08.152Z,81.70
2019-05-21T06:49:05.143Z,81.60
2019-05-21T06:50:07.796Z,81.70
2019-05-21T06:51:05.763Z,81.60
2019-05-21T06:52:05.966Z,81.80
2019-05-21T06:53:07.760Z,82.00
2019-05-21T06:54:05.810Z,81.90
2019-05-21T06:55:08.390Z,81.80
2019-05-21T06:56:08.125Z,81.80
2019-05-21T06:57:05.414Z,81.20
2019-05-21T06:58:05.608Z,81.20
2019-05-21T06:59:05.806Z,81.30
2019-05-21T07:00:05.987Z,81.10
2019-05-21T07:01:05.723Z,81.30
2019-05-21T07:02:05.950Z,81.40
2019-05-21T07:03:05.099Z,81.50
2019-05-21T07:04:07.735Z,81.60
2019-05-21T07:05:05.826Z,81.60
2019-05-21T07:06:05.073Z,81.40
2019-05-21T07:07:07.833Z,81.40
2019-05-21T07:08:05.930Z,81.40
2019-05-21T07:09:05.095Z,81.40
2019-05-21T07:10:05.159Z,81.30
2019-05-21T07:11:05.331Z,81.40
2019-05-21T07:12:05.486Z,81.70
2019-05-21T07:13:05.649Z,81.90
2019-05-21T07:14:08.320Z,81.60
2019-05-21T07:15:10.369Z,81.50
2019-05-21T07:16:07.976Z,81.10
2019-05-21T07:17:07.539Z,81.00
2019-05-21T07:18:08.015Z,80.90
2019-05-21T07:19:07.565Z,80.90
2019-05-21T07:20:13.357Z,80.90
2019-05-21T07:21:05.326Z,81.00
2019-05-21T07:22:13.483Z,81.00
2019-05-21T07:23:05.910Z,80.50
2019-05-21T07:24:10.157Z,80.50
2019-05-21T07:25:10.306Z,80.60
2019-05-21T07:26:05.290Z,80.50
2019-05-21T07:27:05.486Z,80.40
2019-05-21T07:28:05.594Z,80.50
2019-05-21T07:29:05.876Z,80.40
2019-05-21T07:30:05.239Z,80.30
2019-05-21T07:31:05.392Z,80.00
2019-05-21T07:32:08.083Z,80.00
2019-05-21T07:33:06.205Z,80.10
2019-05-21T07:34:08.060Z,79.80
2019-05-21T07:35:07.719Z,79.50
2019-05-21T07:36:08.375Z,79.40
2019-05-21T07:37:05.393Z,79.40
2019-05-21T07:38:05.569Z,79.30
2019-05-21T07:39:05.679Z,79.40
2019-05-21T07:40:05.772Z,79.10
2019-05-21T07:41:05.986Z,78.90
2019-05-21T07:42:07.624Z,78.90
2019-05-21T07:43:05.636Z,78.80
2019-05-21T07:44:05.864Z,78.60
2019-05-21T07:45:08.098Z,78.30
2019-05-21T07:46:05.281Z,78.30
2019-05-21T07:47:05.435Z,78.30
2019-05-21T07:48:05.587Z,78.40
2019-05-21T07:49:05.601Z,78.50
2019-05-21T07:50:05.017Z,78.50
2019-05-21T07:51:10.240Z,78.30
2019-05-21T07:52:07.879Z,77.80
2019-05-21T07:53:05.965Z,77.90
2019-05-21T07:54:05.047Z,78.00
2019-05-21T07:55:05.203Z,77.70
2019-05-21T07:56:05.264Z,77.60
2019-05-21T07:57:05.553Z,77.60
2019-05-21T07:58:05.692Z,78.20
2019-05-21T07:59:05.845Z,77.70
2019-05-21T08:00:07.511Z,77.20
2019-05-21T08:01:08.082Z,77.10
2019-05-21T08:02:05.039Z,77.10
2019-05-21T08:03:05.176Z,77.10
2019-05-21T08:04:05.490Z,77.30
2019-05-21T08:05:06.511Z,77.20
2019-05-21T08:06:05.743Z,76.80
2019-05-21T08:07:05.866Z,76.70
2019-05-21T08:08:08.372Z,76.20
2019-05-21T08:09:14.932Z,76.10
2019-05-21T08:10:05.326Z,75.70
2019-05-21T08:11:05.964Z,75.50
2019-05-21T08:13:07.904Z,76.20
2019-05-21T08:14:08.420Z,75.60
2019-05-21T08:15:08.104Z,75.40
2019-05-21T08:16:05.071Z,75.40
2019-05-21T08:17:05.282Z,75.70
2019-05-21T08:18:05.462Z,75.80
2019-05-21T08:19:05.613Z,75.60
2019-05-21T08:20:10.866Z,75.80
2019-05-21T08:21:05.182Z,75.80
2019-05-21T08:22:05.542Z,76.10
2019-05-21T08:23:10.715Z,76.40
2019-05-21T08:24:08.184Z,76.50
2019-05-21T08:25:05.146Z,76.50
2019-05-21T08:26:05.234Z,76.10
2019-05-21T08:27:07.827Z,76.10
2019-05-21T08:28:05.825Z,76.10
2019-05-21T08:29:06.028Z,76.10
2019-05-21T08:30:05.234Z,75.90
2019-05-21T08:31:05.422Z,76.10
2019-05-21T08:32:08.232Z,76.20
2019-05-21T08:33:05.288Z,76.30
2019-05-21T08:34:07.945Z,76.60
2019-05-21T08:35:05.966Z,76.60
2019-05-21T08:36:06.231Z,76.70
2019-05-21T08:37:12.888Z,76.60
2019-05-21T08:38:07.242Z,76.60
2019-05-21T08:39:05.337Z,76.60
2019-05-21T08:40:07.985Z,76.20
2019-05-21T08:41:10.991Z,76.10
2019-05-21T08:42:05.022Z,76.10
2019-05-21T08:43:05.934Z,76.20
2019-05-21T08:44:05.047Z,76.40
2019-05-21T08:45:06.321Z,76.40
2019-05-21T08:46:07.830Z,76.40
2019-05-21T08:47:08.376Z,76.60
2019-05-21T08:48:05.377Z,76.70
2019-05-21T08:49:05.811Z,76.30
2019-05-21T08:50:05.005Z,76.60
2019-05-21T08:51:05.695Z,76.90
2019-05-21T08:52:05.813Z,77.20
2019-05-21T08:53:05.086Z,76.60
2019-05-21T08:54:08.099Z,76.80
2019-05-21T08:55:05.070Z,76.80
2019-05-21T08:56:12.779Z,77.50
2019-05-21T08:57:13.408Z,77.80
2019-05-21T08:59:07.524Z,78.60
2019-05-21T09:00:05.471Z,78.60
2019-05-21T09:00:06.125Z,77.80
2019-05-21T09:01:11.024Z,78.70
2019-05-21T09:02:05.196Z,78.70
2019-05-21T09:03:05.333Z,78.80
2019-05-21T09:04:10.431Z,78.90
2019-05-21T09:05:05.785Z,79.20
2019-05-21T09:06:08.446Z,79.40
2019-05-21T09:07:05.397Z,79.30
2019-05-21T09:08:08.043Z,79.20
2019-05-21T09:09:07.513Z,79.30
2019-05-21T09:10:05.498Z,79.30
2019-05-21T09:11:08.140Z,79.20
2019-05-21T09:12:05.274Z,79.20
2019-05-21T09:13:05.417Z,79.30
2019-05-21T09:14:05.565Z,79.10
2019-05-21T09:15:08.197Z,78.60
2019-05-21T09:16:07.685Z,77.70
2019-05-21T09:17:05.730Z,77.60
2019-05-21T09:18:05.877Z,77.30
2019-05-21T09:19:07.533Z,77.40
2019-05-21T09:20:05.714Z,77.40
2019-05-21T09:21:05.931Z,77.20
2019-05-21T09:22:07.720Z,78.00
2019-05-21T09:23:05.710Z,78.00
2019-05-21T09:24:05.776Z,78.30
2019-05-21T09:25:05.546Z,78.80
2019-05-21T09:26:05.756Z,78.90
2019-05-21T09:27:05.953Z,78.80
2019-05-21T09:28:07.628Z,78.80
2019-05-21T09:29:05.660Z,78.80
2019-05-21T09:30:05.755Z,78.70
2019-05-21T09:31:08.532Z,78.20
2019-05-21T09:32:05.477Z,78.20
2019-05-21T09:33:05.938Z,78.10
2019-05-21T09:34:07.631Z,77.60
2019-05-21T09:35:08.288Z,77.20
2019-05-21T09:36:05.294Z,77.20
2019-05-21T09:37:19.951Z,77.30
2019-05-21T09:38:05.375Z,77.70
2019-05-21T09:39:05.473Z,78.50
2019-05-21T09:40:10.813Z,77.60
2019-05-21T09:41:08.509Z,77.70
2019-05-21T09:42:08.080Z,77.40
2019-05-21T09:43:05.058Z,77.40
2019-05-21T09:44:05.462Z,76.50
2019-05-21T09:45:05.921Z,77.20
2019-05-21T09:46:07.715Z,77.70
2019-05-21T09:47:08.456Z,77.90
2019-05-21T09:48:08.043Z,77.50
2019-05-21T09:49:05.003Z,77.40
2019-05-21T09:50:05.726Z,76.90
2019-05-21T09:51:08.426Z,76.40
2019-05-21T09:52:07.824Z,76.00
2019-05-21T09:53:05.751Z,76.00
2019-05-21T09:54:05.899Z,76.30
2019-05-21T09:55:07.571Z,74.90
2019-05-21T09:56:05.736Z,75.00
2019-05-21T09:57:06.010Z,74.90
2019-05-21T09:58:07.716Z,75.20
2019-05-21T09:59:08.281Z,75.50
2019-05-21T10:00:05.400Z,75.50
2019-05-21T10:01:05.563Z,75.60
2019-05-21T10:02:05.631Z,75.50
2019-05-21T10:03:08.325Z,76.30
2019-05-21T10:04:08.044Z,75.50
2019-05-21T10:05:07.629Z,75.00
2019-05-21T10:06:05.637Z,75.00
2019-05-21T10:07:10.724Z,75.40
2019-05-21T10:08:08.545Z,74.00
2019-05-21T10:09:05.494Z,74.00
2019-05-21T10:10:05.565Z,74.10
2019-05-21T10:11:05.844Z,73.60
2019-05-21T10:12:07.619Z,73.40
2019-05-21T10:13:08.114Z,72.30
2019-05-21T10:14:05.138Z,72.30
2019-05-21T10:15:05.370Z,71.70
2019-05-21T10:16:05.571Z,71.70
2019-05-21T10:17:08.266Z,73.00
2019-05-21T10:18:05.232Z,73.10
2019-05-21T10:19:07.943Z,74.40
2019-05-21T10:20:08.499Z,74.10
2019-05-21T10:21:07.906Z,74.30
2019-05-21T10:22:06.663Z,74.20
2019-05-21T10:23:08.288Z,75.00
2019-05-21T10:24:15.488Z,74.10
2019-05-21T10:25:16.388Z,72.80
2019-05-21T10:26:05.466Z,72.70
2019-05-21T10:27:08.060Z,70.70
2019-05-21T10:28:12.601Z,70.10
2019-05-21T10:29:05.177Z,70.00
2019-05-21T10:30:05.677Z,70.20
2019-05-21T10:31:05.945Z,70.30
2019-05-21T10:32:05.170Z,70.00
2019-05-21T10:33:05.320Z,70.20
2019-05-21T10:34:05.406Z,69.70
2019-05-21T10:35:06.289Z,70.20
2019-05-21T10:36:08.184Z,69.00
2019-05-21T10:37:05.315Z,69.00
2019-05-21T10:38:08.017Z,66.40
2019-05-21T10:39:06.117Z,66.40
2019-05-21T10:40:05.370Z,67.20
2019-05-21T10:41:05.817Z,67.50
2019-05-21T10:42:07.828Z,67.20
2019-05-21T10:43:10.816Z,68.30
2019-05-21T10:44:05.774Z,68.20
2019-05-21T10:45:05.293Z,68.50
2019-05-21T10:46:07.949Z,68.40
2019-05-21T10:47:05.985Z,68.40
2019-05-21T10:48:05.586Z,68.00
2019-05-21T10:49:05.753Z,67.00
2019-05-21T10:50:08.674Z,66.60
2019-05-21T10:51:05.741Z,66.60
2019-05-21T10:52:05.917Z,66.60
2019-05-21T10:53:05.144Z,66.60
2019-05-21T10:54:05.406Z,66.80
2019-05-21T10:55:08.058Z,67.10
2019-05-21T10:56:07.700Z,67.30
2019-05-21T10:57:08.214Z,67.50
2019-05-21T10:58:05.264Z,67.50
2019-05-21T10:59:05.465Z,66.90
2019-05-21T11:00:05.665Z,66.50
2019-05-21T11:01:08.418Z,66.50
2019-05-21T11:02:08.202Z,66.10
2019-05-21T11:03:05.348Z,66.10
2019-05-21T11:04:05.422Z,66.60
2019-05-21T11:05:05.627Z,66.80
2019-05-21T11:06:10.836Z,67.30
2019-05-21T11:07:10.982Z,66.50
2019-05-21T11:08:24.919Z,66.50
2019-05-21T11:09:10.419Z,66.90
2019-05-21T11:10:06.686Z,66.90
2019-05-21T11:11:08.665Z,66.50
2019-05-21T11:12:05.784Z,66.50
2019-05-21T11:13:08.366Z,66.10
2019-05-21T11:14:08.006Z,66.60
2019-05-21T11:15:05.057Z,66.50
2019-05-21T11:16:05.381Z,66.80
2019-05-21T11:17:05.603Z,65.80
2019-05-21T11:18:12.115Z,66.10
2019-05-21T11:19:10.499Z,65.40
2019-05-21T11:20:05.507Z,65.40
2019-05-21T11:21:05.622Z,66.00
2019-05-21T11:22:10.855Z,66.10
2019-05-21T11:23:05.956Z,66.10
2019-05-21T11:24:05.142Z,65.60
2019-05-21T11:25:05.347Z,65.70
2019-05-21T11:26:06.079Z,65.40
2019-05-21T11:27:05.841Z,64.70
2019-05-21T11:28:06.678Z,62.70
2019-05-21T11:29:05.852Z,62.40
2019-05-21T11:30:10.953Z,60.20
2019-05-21T11:31:05.833Z,60.20
2019-05-21T11:32:05.930Z,60.30
2019-05-21T11:33:05.186Z,60.90
2019-05-21T11:34:10.477Z,60.70
2019-05-21T11:35:08.153Z,59.60
2019-05-21T11:36:05.458Z,59.50
2019-05-21T11:37:08.081Z,60.00
2019-05-21T11:38:05.061Z,60.00
2019-05-21T11:39:05.175Z,60.30
2019-05-21T11:40:08.801Z,60.40
2019-05-21T11:41:05.972Z,61.00
2019-05-21T11:42:05.005Z,60.60
2019-05-21T11:43:10.309Z,61.30
2019-05-21T11:44:05.306Z,61.30
2019-05-21T11:45:05.907Z,61.60
2019-05-21T11:46:07.557Z,61.90
2019-05-21T11:47:05.574Z,61.90
2019-05-21T11:48:05.677Z,62.40
2019-05-21T11:49:05.870Z,61.00
2019-05-21T11:50:05.285Z,59.80
2019-05-21T11:51:07.912Z,61.10
2019-05-21T11:52:08.423Z,61.10
2019-05-21T11:53:05.430Z,61.10
2019-05-21T11:54:08.205Z,59.50
2019-05-21T11:55:05.524Z,59.50
2019-05-21T11:56:05.835Z,59.70
2019-05-21T11:57:08.130Z,59.50
2019-05-21T11:58:05.184Z,59.60
2019-05-21T11:59:08.006Z,60.30
2019-05-21T12:00:05.075Z,60.30
2019-05-21T12:01:10.333Z,58.30
2019-05-21T12:10:05.916Z,55.20
2019-05-21T12:11:05.771Z,55.30
2019-05-21T12:12:11.043Z,56.10
2019-05-21T12:13:10.109Z,55.30
2019-05-21T12:14:07.575Z,55.50
2019-05-21T12:15:08.129Z,54.70
2019-05-21T12:16:07.703Z,54.70
2019-05-21T12:17:08.201Z,55.50
2019-05-21T12:18:05.166Z,55.50
2019-05-21T12:19:08.886Z,55.50
2019-05-21T12:20:06.018Z,55.40
2019-05-21T12:21:07.704Z,54.60
2019-05-21T12:22:08.272Z,54.80
2019-05-21T12:23:05.270Z,54.80
2019-05-21T12:24:05.476Z,55.70
2019-05-21T12:25:05.581Z,57.10
2019-05-21T12:26:08.249Z,59.00
2019-05-21T12:27:07.977Z,57.10
2019-05-21T12:28:15.335Z,57.50
2019-05-21T12:29:07.838Z,57.40
2019-05-21T12:30:08.344Z,57.10
2019-05-21T12:31:07.814Z,57.00
2019-05-21T12:32:10.838Z,56.30
2019-05-21T12:33:10.803Z,56.10
2019-05-21T12:34:08.313Z,56.00
2019-05-21T12:35:05.293Z,56.00
2019-05-21T12:36:05.400Z,55.50
2019-05-21T12:37:08.023Z,55.50
2019-05-21T12:38:05.087Z,55.50
2019-05-21T12:39:14.996Z,54.50
2019-05-21T12:40:05.332Z,53.20
2019-05-21T12:41:08.178Z,53.50
2019-05-21T12:42:05.294Z,53.50
2019-05-21T12:43:05.485Z,53.30
2019-05-21T12:44:05.735Z,53.60
2019-05-21T12:45:05.885Z,53.50
2019-05-21T12:46:07.612Z,52.80
2019-05-21T12:47:10.310Z,53.40
2019-05-21T12:48:07.956Z,53.90
2019-05-21T12:49:07.503Z,54.10
2019-05-21T12:50:07.968Z,54.00
2019-05-21T12:51:08.546Z,53.80
2019-05-21T12:52:08.128Z,53.50
2019-05-21T12:53:05.237Z,53.70
2019-05-21T12:54:07.677Z,53.10
2019-05-21T12:55:05.600Z,53.10
2019-05-21T12:56:08.222Z,54.20
2019-05-21T12:57:07.805Z,54.50
2019-05-21T12:58:08.413Z,54.40
2019-05-21T12:59:05.386Z,54.40
2019-05-21T13:00:07.924Z,55.50
2019-05-21T13:01:05.897Z,55.50